createdAt,value
2018-06-13T00:00:23.544Z,16.60
2018-06-13T00:02:51.822Z,16.60
2018-06-13T00:05:20.050Z,16.70
2018-06-13T00:07:48.306Z,16.70
2018-06-13T00:10:16.562Z,16.80
2018-06-13T00:12:44.772Z,16.80
2018-06-13T00:15:13.015Z,16.80
2018-06-13T00:17:41.243Z,16.70
2018-06-13T00:20:09.478Z,16.80
2018-06-13T00:22:37.695Z,16.80
2018-06-13T00:25:05.986Z,16.80
2018-06-13T00:27:34.223Z,16.70
2018-06-13T00:32:30.464Z,16.80
2018-06-13T00:34:58.738Z,16.70
2018-06-13T00:37:27.019Z,16.80
2018-06-13T00:39:55.248Z,16.90
2018-06-13T00:42:23.477Z,16.70
2018-06-13T00:44:51.707Z,16.60
2018-06-13T00:47:20.073Z,16.60
2018-06-13T00:49:48.279Z,16.70
2018-06-13T00:52:16.562Z,16.70
2018-06-13T00:54:44.842Z,16.60
2018-06-13T00:57:13.063Z,16.60
2018-06-13T00:59:41.345Z,16.50
2018-06-13T01:02:09.552Z,16.60
2018-06-13T01:04:37.798Z,16.60
2018-06-13T01:07:06.054Z,16.60
2018-06-13T01:09:34.283Z,16.60
2018-06-13T01:12:02.514Z,16.60
2018-06-13T01:14:30.738Z,16.70
2018-06-13T01:16:59.018Z,16.60
2018-06-13T01:19:27.255Z,16.70
2018-06-13T01:21:55.539Z,16.70
2018-06-13T01:24:23.789Z,16.70
2018-06-13T01:26:52.036Z,16.70
2018-06-13T01:29:20.327Z,16.70
2018-06-13T01:31:48.544Z,16.70
2018-06-13T01:34:16.770Z,16.70
2018-06-13T01:36:44.989Z,16.70
2018-06-13T01:39:13.231Z,16.60
2018-06-13T01:41:41.482Z,16.50
2018-06-13T01:44:09.715Z,16.50
2018-06-13T01:46:37.970Z,16.50
2018-06-13T01:49:06.209Z,16.50
2018-06-13T01:51:34.426Z,16.50
2018-06-13T01:54:02.679Z,16.50
2018-06-13T01:56:30.902Z,16.40
2018-06-13T01:58:59.135Z,16.40
2018-06-13T02:01:27.367Z,16.40
2018-06-13T02:03:55.633Z,16.50
2018-06-13T02:06:23.886Z,16.40
2018-06-13T02:08:52.130Z,16.40
2018-06-13T02:13:48.369Z,16.50
2018-06-13T02:16:16.622Z,16.40
2018-06-13T02:18:44.879Z,16.30
2018-06-13T02:21:13.095Z,16.30
2018-06-13T02:23:41.345Z,16.20
2018-06-13T02:28:37.621Z,16.30
2018-06-13T02:31:06.083Z,16.20
2018-06-13T02:33:34.331Z,16.20
2018-06-13T02:36:02.572Z,16.20
2018-06-13T02:38:31.851Z,16.20
2018-06-13T02:41:00.111Z,16.20
2018-06-13T02:43:28.345Z,16.20
2018-06-13T02:45:56.570Z,16.30
2018-06-13T02:48:24.839Z,16.20
2018-06-13T02:50:54.094Z,16.30
2018-06-13T02:53:22.321Z,16.20
2018-06-13T02:55:50.552Z,16.30
2018-06-13T02:58:18.874Z,16.40
2018-06-13T03:00:47.113Z,16.40
2018-06-13T03:03:15.405Z,16.40
2018-06-13T03:05:43.675Z,16.40
2018-06-13T03:08:11.899Z,16.40
2018-06-13T03:10:40.139Z,16.40
2018-06-13T03:13:08.389Z,16.30
2018-06-13T03:15:36.611Z,16.40
2018-06-13T03:18:05.134Z,16.40
2018-06-13T03:20:33.439Z,16.40
2018-06-13T03:23:01.688Z,16.30
2018-06-13T03:25:29.957Z,16.30
2018-06-13T03:27:58.266Z,16.30
2018-06-13T03:30:26.542Z,16.30
2018-06-13T03:32:54.820Z,16.30
2018-06-13T03:35:23.062Z,16.30
2018-06-13T03:37:51.315Z,16.30
2018-06-13T03:40:19.603Z,16.30
2018-06-13T03:42:47.847Z,16.20
2018-06-13T03:45:16.150Z,16.20
2018-06-13T03:47:44.415Z,16.20
2018-06-13T03:50:12.643Z,16.20
2018-06-13T03:52:40.887Z,16.20
2018-06-13T03:55:09.111Z,16.20
2018-06-13T03:57:37.353Z,16.20
2018-06-13T04:00:05.631Z,16.20
2018-06-13T04:05:01.871Z,16.30
2018-06-13T04:07:30.138Z,16.30
2018-06-13T04:09:58.359Z,16.30
2018-06-13T04:12:26.588Z,16.40
2018-06-13T04:14:54.814Z,16.40
2018-06-13T04:17:23.032Z,16.40
2018-06-13T04:19:51.366Z,16.40
2018-06-13T04:22:19.707Z,16.40
2018-06-13T04:24:48.105Z,16.30
2018-06-13T04:27:16.351Z,16.30
2018-06-13T04:29:44.605Z,16.30
2018-06-13T04:32:12.839Z,16.30
2018-06-13T04:34:41.077Z,16.20
2018-06-13T04:37:09.342Z,16.20
2018-06-13T04:39:37.570Z,16.30
2018-06-13T04:42:05.806Z,16.30
2018-06-13T04:44:34.066Z,16.40
2018-06-13T04:47:02.313Z,16.50
2018-06-13T04:49:30.601Z,16.60
2018-06-13T04:51:58.813Z,16.60
2018-06-13T04:54:27.062Z,16.60
2018-06-13T04:56:55.301Z,16.70
2018-06-13T04:59:23.521Z,16.60
2018-06-13T05:01:51.845Z,16.70
2018-06-13T05:04:20.093Z,16.80
2018-06-13T05:06:48.312Z,16.80
2018-06-13T05:09:16.551Z,16.90
2018-06-13T05:11:44.795Z,16.90
2018-06-13T05:14:13.031Z,17.00
2018-06-13T05:16:41.287Z,17.10
2018-06-13T05:19:09.539Z,17.20
2018-06-13T05:21:37.813Z,17.20
2018-06-13T05:24:06.055Z,17.20
2018-06-13T05:26:34.278Z,17.30
2018-06-13T05:29:02.511Z,17.30
2018-06-13T05:31:30.790Z,17.40
2018-06-13T05:33:59.022Z,17.40
2018-06-13T05:36:27.282Z,17.50
2018-06-13T05:38:55.522Z,17.50
2018-06-13T05:41:23.819Z,17.50
2018-06-13T05:43:52.099Z,17.50
2018-06-13T05:46:20.268Z,17.50
2018-06-13T05:48:48.519Z,17.40
2018-06-13T05:51:16.766Z,17.40
2018-06-13T05:53:44.983Z,17.40
2018-06-13T05:56:13.239Z,17.40
2018-06-13T05:58:41.456Z,17.50
2018-06-13T06:01:09.744Z,17.60
2018-06-13T06:03:37.936Z,17.80
2018-06-13T06:06:06.310Z,17.80
2018-06-13T06:11:02.554Z,17.40
2018-06-13T06:13:30.833Z,17.40
2018-06-13T06:15:59.043Z,17.30
2018-06-13T06:20:55.298Z,17.20
2018-06-13T06:23:23.566Z,17.20
2018-06-13T06:28:19.811Z,17.30
2018-06-13T06:30:48.117Z,17.40
2018-06-13T06:33:16.334Z,17.50
2018-06-13T06:35:44.547Z,17.40
2018-06-13T06:38:12.837Z,17.30
2018-06-13T06:40:41.082Z,17.40
2018-06-13T06:43:09.350Z,17.60
2018-06-13T06:45:37.678Z,17.80
2018-06-13T06:48:06.094Z,17.90
2018-06-13T06:50:34.315Z,18.10
2018-06-13T06:53:02.562Z,18.30
2018-06-13T06:55:30.857Z,18.50
2018-06-13T06:57:59.083Z,18.60
2018-06-13T07:00:27.357Z,18.60
2018-06-13T07:02:55.588Z,18.30
2018-06-13T07:05:23.842Z,18.40
2018-06-13T07:07:52.711Z,18.50
2018-06-13T07:10:20.970Z,18.70
2018-06-13T07:12:49.231Z,18.90
2018-06-13T07:15:17.497Z,19.00
2018-06-13T07:17:45.703Z,19.10
2018-06-13T07:20:13.961Z,19.20
2018-06-13T07:22:42.198Z,19.10
2018-06-13T07:25:10.442Z,19.10
2018-06-13T07:27:38.749Z,19.10
2018-06-13T07:30:07.012Z,19.20
2018-06-13T07:32:35.261Z,19.30
2018-06-13T07:35:03.500Z,19.40
2018-06-13T07:37:31.756Z,19.30
2018-06-13T07:39:59.974Z,19.60
2018-06-13T07:42:28.215Z,19.80
2018-06-13T07:44:56.415Z,19.70
2018-06-13T07:47:24.682Z,19.80
2018-06-13T07:49:52.976Z,19.80
2018-06-13T07:52:21.215Z,19.90
2018-06-13T07:54:49.501Z,19.80
2018-06-13T07:57:17.779Z,19.50
2018-06-13T07:59:45.999Z,19.20
2018-06-13T08:02:14.243Z,18.90
2018-06-13T08:04:42.454Z,18.70
2018-06-13T08:07:10.652Z,18.50
2018-06-13T08:09:38.946Z,18.40
2018-06-13T08:12:07.182Z,18.30
2018-06-13T08:14:35.422Z,18.40
2018-06-13T08:17:03.655Z,18.60
2018-06-13T08:19:31.894Z,18.80
2018-06-13T08:22:00.126Z,19.00
2018-06-13T08:24:28.408Z,19.00
2018-06-13T08:26:56.648Z,18.80
2018-06-13T08:29:24.875Z,18.80
2018-06-13T08:31:53.146Z,18.90
2018-06-13T08:34:21.376Z,18.80
2018-06-13T08:36:49.618Z,18.90
2018-06-13T08:39:17.972Z,19.10
2018-06-13T08:41:46.252Z,18.90
2018-06-13T08:46:42.452Z,18.60
2018-06-13T08:49:10.705Z,18.60
2018-06-13T08:51:38.975Z,18.70
2018-06-13T08:54:07.215Z,18.70
2018-06-13T08:56:35.423Z,18.70
2018-06-13T08:59:03.642Z,18.70
2018-06-13T09:03:59.878Z,18.80
2018-06-13T09:06:28.129Z,19.00
2018-06-13T09:08:56.396Z,19.00
2018-06-13T09:11:24.635Z,18.90
2018-06-13T09:13:52.937Z,18.50
2018-06-13T09:16:21.163Z,18.20
2018-06-13T09:18:49.373Z,17.90
2018-06-13T09:21:17.658Z,18.00
2018-06-13T09:23:45.869Z,18.20
2018-06-13T09:26:14.091Z,18.50
2018-06-13T09:28:42.334Z,18.90
2018-06-13T09:31:10.617Z,19.40
2018-06-13T09:33:38.854Z,19.90
2018-06-13T09:36:07.263Z,20.40
2018-06-13T09:38:35.498Z,20.60
2018-06-13T09:41:03.733Z,21.10
2018-06-13T09:43:31.953Z,21.40
2018-06-13T09:46:03.401Z,21.70
2018-06-13T09:48:28.493Z,21.50
2018-06-13T09:50:56.732Z,21.10
2018-06-13T09:53:24.953Z,20.90
2018-06-13T09:55:53.180Z,20.60
2018-06-13T10:00:54.809Z,19.70
2018-06-13T10:03:23.038Z,19.50
2018-06-13T10:05:50.555Z,19.60
2018-06-13T10:08:18.105Z,19.60
2018-06-13T10:10:45.628Z,19.80
2018-06-13T10:13:13.142Z,20.00
2018-06-13T10:15:40.662Z,19.90
2018-06-13T10:18:08.169Z,20.10
2018-06-13T10:20:35.672Z,20.10
2018-06-13T10:23:03.205Z,20.20
2018-06-13T10:25:30.827Z,20.30
2018-06-13T10:27:58.285Z,20.50
2018-06-13T10:30:25.807Z,20.80
2018-06-13T10:32:53.315Z,21.00
2018-06-13T10:35:20.930Z,21.10
2018-06-13T10:37:48.473Z,21.10
2018-06-13T10:40:16.060Z,21.10
2018-06-13T10:42:43.583Z,21.00
2018-06-13T10:45:11.095Z,21.20
2018-06-13T10:47:38.621Z,21.20
2018-06-13T10:50:06.159Z,21.30
2018-06-13T10:52:33.672Z,21.40
2018-06-13T10:55:01.221Z,21.50
2018-06-13T10:57:28.733Z,21.90
2018-06-13T10:59:56.251Z,22.00
2018-06-13T11:02:23.771Z,22.10
2018-06-13T11:14:40.538Z,23.00
2018-06-13T11:17:08.093Z,22.70
2018-06-13T11:19:35.620Z,21.80
2018-06-13T11:22:03.124Z,21.20
2018-06-13T11:24:30.646Z,21.10
2018-06-13T11:26:58.192Z,20.90
2018-06-13T11:29:25.706Z,21.00
2018-06-13T11:41:42.795Z,21.40
2018-06-13T11:44:10.311Z,21.70
2018-06-13T11:46:38.357Z,22.00
2018-06-13T11:49:05.999Z,22.10
2018-06-13T11:51:33.511Z,22.20
2018-06-13T11:54:01.018Z,22.00
2018-06-13T11:56:28.554Z,21.90
2018-06-13T11:58:56.074Z,22.10
2018-06-13T12:01:23.610Z,22.30
2018-06-13T12:03:51.272Z,22.40
2018-06-13T12:06:18.816Z,22.30
2018-06-13T12:08:46.370Z,21.80
2018-06-13T12:23:30.637Z,20.90
2018-06-13T12:25:58.187Z,21.10
2018-06-13T12:28:25.737Z,21.70
2018-06-13T12:30:53.262Z,22.30
2018-06-13T12:33:20.791Z,23.00
2018-06-13T12:35:48.350Z,24.30
2018-06-13T12:38:15.874Z,24.60
2018-06-13T12:40:43.405Z,24.20
2018-06-13T12:43:11.637Z,23.60
2018-06-13T12:45:39.856Z,23.40
2018-06-13T12:48:08.083Z,23.30
2018-06-13T12:50:36.339Z,23.20
2018-06-13T12:53:04.572Z,23.50
2018-06-13T12:55:32.815Z,23.60
2018-06-13T12:58:00.420Z,24.20
2018-06-13T13:00:27.950Z,24.70
2018-06-13T13:02:55.456Z,25.00
2018-06-13T13:05:23.005Z,25.10
2018-06-13T13:07:51.231Z,24.60
2018-06-13T13:10:19.486Z,23.90
2018-06-13T13:12:47.738Z,23.40
2018-06-13T13:15:15.950Z,22.80
2018-06-13T13:17:44.190Z,22.30
2018-06-13T13:20:12.546Z,21.90
2018-06-13T13:22:40.722Z,21.70
2018-06-13T13:25:08.235Z,21.70
2018-06-13T13:27:35.759Z,21.80
2018-06-13T13:30:03.401Z,21.50
2018-06-13T13:32:30.884Z,21.50
2018-06-13T13:34:58.426Z,21.90
2018-06-13T13:37:26.036Z,22.20
2018-06-13T13:39:53.562Z,22.60
2018-06-13T13:42:21.087Z,22.90
2018-06-13T13:44:48.602Z,23.40
2018-06-13T13:47:16.126Z,23.40
2018-06-13T13:49:44.365Z,23.70
2018-06-13T13:52:12.642Z,25.00
2018-06-13T13:54:40.884Z,26.90
2018-06-13T13:57:09.122Z,28.80
2018-06-13T13:59:37.418Z,29.40
2018-06-13T14:02:05.639Z,29.10
2018-06-13T14:04:33.881Z,28.70
2018-06-13T14:07:02.147Z,28.10
2018-06-13T14:09:30.382Z,27.70
2018-06-13T14:11:58.655Z,27.80
2018-06-13T14:14:26.880Z,28.10
2018-06-13T14:16:56.354Z,29.10
2018-06-13T14:19:24.610Z,30.00
2018-06-13T14:21:52.864Z,30.40
2018-06-13T14:24:21.085Z,30.20
2018-06-13T14:26:49.303Z,29.40
2018-06-13T14:29:18.053Z,28.90
2018-06-13T14:31:46.261Z,28.70
2018-06-13T14:34:14.476Z,29.20
2018-06-13T14:36:44.576Z,29.00
2018-06-13T14:39:12.819Z,28.70
2018-06-13T14:41:41.976Z,27.90
2018-06-13T14:44:10.334Z,27.30
2018-06-13T14:46:38.542Z,27.00
2018-06-13T14:49:06.981Z,26.60
2018-06-13T14:51:35.249Z,25.90
2018-06-13T14:54:03.612Z,25.60
2018-06-13T14:56:33.029Z,25.60
2018-06-13T14:59:02.158Z,25.70
2018-06-13T15:01:30.678Z,25.50
2018-06-13T15:03:58.923Z,25.20
2018-06-13T15:06:27.164Z,25.10
2018-06-13T15:08:56.699Z,24.70
2018-06-13T15:11:25.443Z,24.10
2018-06-13T15:13:53.970Z,23.80
2018-06-13T15:16:24.363Z,23.80
2018-06-13T15:18:58.475Z,23.60
2018-06-13T15:21:27.321Z,23.70
2018-06-13T15:23:55.565Z,23.70
2018-06-13T15:28:51.827Z,23.40
2018-06-13T15:36:16.298Z,23.40
2018-06-13T15:38:44.511Z,23.30
2018-06-13T15:41:13.027Z,23.00
2018-06-13T15:43:41.327Z,22.70
2018-06-13T15:46:09.571Z,22.50
2018-06-13T15:48:37.839Z,22.20
2018-06-13T15:51:06.154Z,22.00
2018-06-13T15:53:36.128Z,21.90
2018-06-13T15:58:32.433Z,21.80
2018-06-13T16:01:00.705Z,21.90
2018-06-13T16:03:28.954Z,22.00
2018-06-13T16:05:57.182Z,22.20
2018-06-13T16:08:25.443Z,22.40
2018-06-13T16:10:53.716Z,22.80
2018-06-13T16:15:49.934Z,23.30
2018-06-13T16:18:18.189Z,23.20
2018-06-13T16:20:48.212Z,23.20
2018-06-13T16:23:16.460Z,23.10
2018-06-13T16:25:44.839Z,23.00
2018-06-13T16:30:41.094Z,22.10
2018-06-13T16:33:09.346Z,21.90
2018-06-13T16:35:37.591Z,21.70
2018-06-13T16:38:05.829Z,21.80
2018-06-13T16:40:34.067Z,21.80
2018-06-13T16:43:02.327Z,21.80
2018-06-13T16:45:30.598Z,22.00
2018-06-13T16:47:58.834Z,22.50
2018-06-13T16:50:38.553Z,22.90
2018-06-13T16:53:13.319Z,23.00
2018-06-13T16:55:41.546Z,22.90
2018-06-13T16:58:09.819Z,22.80
2018-06-13T17:00:38.051Z,22.60
2018-06-13T17:03:06.304Z,22.70
2018-06-13T17:05:34.566Z,22.80
2018-06-13T17:08:02.803Z,22.80
2018-06-13T17:10:31.050Z,22.70
2018-06-13T17:12:59.308Z,22.70
2018-06-13T17:15:27.572Z,22.80
2018-06-13T17:17:55.821Z,22.90
2018-06-13T17:22:52.005Z,22.80
2018-06-13T17:25:20.286Z,22.60
2018-06-13T17:27:48.558Z,22.70
2018-06-13T17:30:16.765Z,22.60
2018-06-13T17:32:45.011Z,22.40
2018-06-13T17:35:13.342Z,22.20
2018-06-13T17:37:41.559Z,22.20
2018-06-13T17:40:09.850Z,22.10
2018-06-13T17:42:38.065Z,22.00
2018-06-13T17:45:06.661Z,22.10
2018-06-13T17:47:34.836Z,22.20
2018-06-13T17:50:03.079Z,22.20
2018-06-13T17:52:31.302Z,22.10
2018-06-13T17:54:59.527Z,22.10
2018-06-13T17:59:55.798Z,22.10
2018-06-13T18:02:24.039Z,22.00
2018-06-13T18:04:52.253Z,22.00
2018-06-13T18:07:20.639Z,22.00
2018-06-13T18:09:48.903Z,22.10
2018-06-13T18:12:17.159Z,21.90
2018-06-13T18:14:45.401Z,21.80
2018-06-13T18:17:13.651Z,21.70
2018-06-13T18:19:41.874Z,21.80
2018-06-13T18:22:10.194Z,21.70
2018-06-13T18:27:06.386Z,21.60
2018-06-13T18:29:34.631Z,21.50
2018-06-13T18:32:02.894Z,21.50
2018-06-13T18:34:31.122Z,21.40
2018-06-13T18:36:59.387Z,21.20
2018-06-13T18:39:27.606Z,21.20
2018-06-13T18:41:55.848Z,21.10
2018-06-13T18:44:24.113Z,21.10
2018-06-13T18:46:52.407Z,21.10
2018-06-13T18:49:20.710Z,21.00
2018-06-13T18:51:48.933Z,21.00
2018-06-13T18:54:17.330Z,20.90
2018-06-13T18:56:45.627Z,20.90
2018-06-13T19:01:45.162Z,20.80
2018-06-13T19:04:14.334Z,20.80
2018-06-13T19:06:42.693Z,20.80
2018-06-13T19:09:11.886Z,20.70
2018-06-13T19:14:10.201Z,20.60
2018-06-13T19:19:06.823Z,20.40
2018-06-13T19:21:35.313Z,20.30
2018-06-13T19:24:03.738Z,20.10
2018-06-13T19:26:32.322Z,19.90
2018-06-13T19:29:00.653Z,19.80
2018-06-13T19:33:56.964Z,19.50
2018-06-13T19:36:27.633Z,19.30
2018-06-13T19:38:56.066Z,19.20
2018-06-13T19:41:24.365Z,19.00
2018-06-13T19:43:52.600Z,18.80
2018-06-13T19:46:20.854Z,18.70
2018-06-13T19:48:51.938Z,18.50
2018-06-13T19:51:20.324Z,18.40
2018-06-13T19:53:54.087Z,18.20
2018-06-13T19:56:28.018Z,18.10
2018-06-13T19:58:56.299Z,18.00
2018-06-13T20:03:58.381Z,17.80
2018-06-13T20:06:27.949Z,17.70
2018-06-13T20:08:58.055Z,17.60
2018-06-13T20:11:26.301Z,17.50
2018-06-13T20:13:59.821Z,17.50
2018-06-13T20:16:44.998Z,17.40
2018-06-13T20:19:18.683Z,17.30
2018-06-13T20:21:46.947Z,17.20
2018-06-13T20:26:48.976Z,17.10
2018-06-13T20:29:22.792Z,17.00
2018-06-13T20:31:51.027Z,16.90
2018-06-13T20:34:19.298Z,16.80
2018-06-13T20:36:46.848Z,16.60
2018-06-13T20:39:14.418Z,16.50
2018-06-13T20:41:41.934Z,16.30
2018-06-13T20:44:10.410Z,16.10
2018-06-13T20:46:38.131Z,16.00
2018-06-13T20:51:32.946Z,15.80
2018-06-13T20:54:00.475Z,15.60
2018-06-13T20:56:28.284Z,15.50
2018-06-13T20:58:55.815Z,15.40
2018-06-13T21:01:24.057Z,15.30
2018-06-13T21:03:52.377Z,15.10
2018-06-13T21:08:48.711Z,15.10
2018-06-13T21:11:17.081Z,15.10
2018-06-13T21:13:45.523Z,15.10
2018-06-13T21:16:13.760Z,15.30
2018-06-13T21:18:42.035Z,15.40
2018-06-13T21:21:10.350Z,15.50
2018-06-13T21:23:38.606Z,15.50
2018-06-13T21:26:06.816Z,15.50
2018-06-13T21:28:35.164Z,15.50
2018-06-13T21:31:03.379Z,15.50
2018-06-13T21:33:31.633Z,15.60
2018-06-13T21:35:59.847Z,15.60
2018-06-13T21:38:28.084Z,15.60
2018-06-13T21:40:56.330Z,15.60
2018-06-13T21:43:24.561Z,15.60
2018-06-13T21:45:52.795Z,15.50
2018-06-13T21:48:21.086Z,15.50
2018-06-13T21:50:49.342Z,15.40
2018-06-13T21:53:17.563Z,15.40
2018-06-13T21:55:45.866Z,15.40
2018-06-13T21:58:14.075Z,15.40
2018-06-13T22:00:42.328Z,15.40
2018-06-13T22:03:10.949Z,15.40
2018-06-13T22:05:39.210Z,15.30
2018-06-13T22:08:07.519Z,15.30
2018-06-13T22:10:35.759Z,15.30
2018-06-13T22:13:04.022Z,15.30
2018-06-13T22:15:32.314Z,15.30
2018-06-13T22:18:00.559Z,15.20
2018-06-13T22:20:28.832Z,15.20
2018-06-13T22:22:57.118Z,15.10
2018-06-13T22:25:25.363Z,15.10
2018-06-13T22:27:53.627Z,15.00
2018-06-13T22:30:21.908Z,14.90
2018-06-13T22:32:50.193Z,14.80
2018-06-13T22:35:18.468Z,14.80
2018-06-13T22:37:46.758Z,14.80
2018-06-13T22:40:15.012Z,14.60
2018-06-13T22:42:43.244Z,14.60
2018-06-13T22:45:11.494Z,14.60
2018-06-13T22:47:39.716Z,14.50
2018-06-13T22:50:07.993Z,14.40
2018-06-13T22:52:36.227Z,14.40
2018-06-13T22:55:04.474Z,14.40
2018-06-13T22:57:32.716Z,14.30
2018-06-13T23:00:00.960Z,14.30
2018-06-13T23:02:29.186Z,14.30
2018-06-13T23:04:57.473Z,14.30
2018-06-13T23:07:25.675Z,14.20
2018-06-13T23:09:53.939Z,14.20
2018-06-13T23:12:22.194Z,14.20
2018-06-13T23:14:50.429Z,14.10
2018-06-13T23:17:18.716Z,14.10
2018-06-13T23:19:46.995Z,14.10
2018-06-13T23:22:15.322Z,14.10
2018-06-13T23:24:43.574Z,14.00
2018-06-13T23:27:11.798Z,14.00
2018-06-13T23:29:40.038Z,14.00
2018-06-13T23:32:08.306Z,14.00
2018-06-13T23:34:36.558Z,13.90
2018-06-13T23:37:04.830Z,13.80
2018-06-13T23:39:33.065Z,13.80
2018-06-13T23:42:01.320Z,13.80
2018-06-13T23:44:29.568Z,13.80
2018-06-13T23:46:57.803Z,13.70
2018-06-13T23:49:26.069Z,13.70
2018-06-13T23:54:36.827Z,13.80
2018-06-13T23:57:05.200Z,13.80
2018-06-13T23:59:33.462Z,13.70
